sensor_id;sensor_type;location;lat;lon;timestamp;temperature;humidity
39095;DHT22;24840;47.508;19.376;2023-02-25T00:00:30;7.50;99.90
39095;DHT22;24840;47.508;19.376;2023-02-25T00:02:57;7.40;99.90
39095;DHT22;24840;47.508;19.376;2023-02-25T00:05:23;7.40;99.90
39095;DHT22;24840;47.508;19.376;2023-02-25T00:07:49;7.50;99.90
39095;DHT22;24840;47.508;19.376;2023-02-25T00:10:15;7.50;99.90
39095;DHT22;24840;47.508;19.376;2023-02-25T00:12:41;7.40;99.90
39095;DHT22;24840;47.508;19.376;2023-02-25T00:15:08;7.30;99.90
39095;DHT22;24840;47.508;19.376;2023-02-25T00:17:34;7.40;99.90
39095;DHT22;24840;47.508;19.376;2023-02-25T00:20:00;7.20;99.90
39095;DHT22;24840;47.508;19.376;2023-02-25T00:22:27;7.30;99.90
39095;DHT22;24840;47.508;19.376;2023-02-25T00:24:56;7.20;99.90
39095;DHT22;24840;47.508;19.376;2023-02-25T00:27:23;7.10;99.90
39095;DHT22;24840;47.508;19.376;2023-02-25T00:29:53;7.20;99.90
39095;DHT22;24840;47.508;19.376;2023-02-25T00:32:19;7.30;99.90
39095;DHT22;24840;47.508;19.376;2023-02-25T00:34:45;7.30;99.90
39095;DHT22;24840;47.508;19.376;2023-02-25T00:37:12;7.40;99.90
39095;DHT22;24840;47.508;19.376;2023-02-25T00:39:38;7.30;99.90
39095;DHT22;24840;47.508;19.376;2023-02-25T00:42:08;7.30;99.90
39095;DHT22;24840;47.508;19.376;2023-02-25T00:44:34;7.20;99.90
39095;DHT22;24840;47.508;19.376;2023-02-25T00:47:01;7.00;99.90
39095;DHT22;24840;47.508;19.376;2023-02-25T00:49:27;7.10;99.90
39095;DHT22;24840;47.508;19.376;2023-02-25T00:51:53;7.10;99.90
39095;DHT22;24840;47.508;19.376;2023-02-25T00:54:20;6.90;99.90
39095;DHT22;24840;47.508;19.376;2023-02-25T00:56:46;6.80;99.90
39095;DHT22;24840;47.508;19.376;2023-02-25T00:59:12;6.80;99.90
39095;DHT22;24840;47.508;19.376;2023-02-25T01:01:38;6.80;99.90
39095;DHT22;24840;47.508;19.376;2023-02-25T01:04:05;6.60;99.90
39095;DHT22;24840;47.508;19.376;2023-02-25T01:06:32;6.50;99.90
39095;DHT22;24840;47.508;19.376;2023-02-25T01:08:58;6.40;99.90
39095;DHT22;24840;47.508;19.376;2023-02-25T01:11:30;6.30;99.90
39095;DHT22;24840;47.508;19.376;2023-02-25T01:13:59;6.30;99.90
39095;DHT22;24840;47.508;19.376;2023-02-25T01:16:26;6.30;99.90
39095;DHT22;24840;47.508;19.376;2023-02-25T01:18:58;6.20;99.90
39095;DHT22;24840;47.508;19.376;2023-02-25T01:21:26;6.10;99.90
39095;DHT22;24840;47.508;19.376;2023-02-25T01:24:01;6.00;99.90
39095;DHT22;24840;47.508;19.376;2023-02-25T01:26:30;6.00;99.90
39095;DHT22;24840;47.508;19.376;2023-02-25T01:28:56;6.00;99.90
39095;DHT22;24840;47.508;19.376;2023-02-25T01:31:22;6.20;99.90
39095;DHT22;24840;47.508;19.376;2023-02-25T01:34:00;6.10;99.90
39095;DHT22;24840;47.508;19.376;2023-02-25T01:36:27;5.90;99.90
39095;DHT22;24840;47.508;19.376;2023-02-25T01:38:53;5.80;99.90
39095;DHT22;24840;47.508;19.376;2023-02-25T01:41:18;5.60;99.90
39095;DHT22;24840;47.508;19.376;2023-02-25T01:44:13;5.60;99.90
39095;DHT22;24840;47.508;19.376;2023-02-25T01:46:41;5.70;99.90
39095;DHT22;24840;47.508;19.376;2023-02-25T01:49:30;5.60;99.90
39095;DHT22;24840;47.508;19.376;2023-02-25T01:52:02;5.70;99.90
39095;DHT22;24840;47.508;19.376;2023-02-25T01:54:30;5.70;99.90
39095;DHT22;24840;47.508;19.376;2023-02-25T01:56:57;5.80;99.90
39095;DHT22;24840;47.508;19.376;2023-02-25T01:59:26;5.80;99.90
39095;DHT22;24840;47.508;19.376;2023-02-25T02:01:53;5.80;99.90
39095;DHT22;24840;47.508;19.376;2023-02-25T02:04:20;5.80;99.90
39095;DHT22;24840;47.508;19.376;2023-02-25T02:06:48;5.80;99.90
39095;DHT22;24840;47.508;19.376;2023-02-25T02:09:18;5.90;99.90
39095;DHT22;24840;47.508;19.376;2023-02-25T02:11:45;5.80;99.90
39095;DHT22;24840;47.508;19.376;2023-02-25T02:14:15;5.70;99.90
39095;DHT22;24840;47.508;19.376;2023-02-25T02:20:05;5.70;99.90
39095;DHT22;24840;47.508;19.376;2023-02-25T02:34:02;6.10;99.90
39095;DHT22;24840;47.508;19.376;2023-02-25T02:47:36;6.10;99.90
39095;DHT22;24840;47.508;19.376;2023-02-25T02:50:07;6.00;99.90
39095;DHT22;24840;47.508;19.376;2023-02-25T02:52:38;6.00;99.90
39095;DHT22;24840;47.508;19.376;2023-02-25T02:57:37;5.80;99.90
39095;DHT22;24840;47.508;19.376;2023-02-25T03:00:08;5.70;99.90
39095;DHT22;24840;47.508;19.376;2023-02-25T03:02:45;5.70;99.90
39095;DHT22;24840;47.508;19.376;2023-02-25T03:05:14;5.50;99.90
39095;DHT22;24840;47.508;19.376;2023-02-25T03:08:06;5.60;99.90
39095;DHT22;24840;47.508;19.376;2023-02-25T03:10:32;5.50;99.90
39095;DHT22;24840;47.508;19.376;2023-02-25T03:12:58;5.60;99.90
39095;DHT22;24840;47.508;19.376;2023-02-25T03:15:25;5.70;99.90
39095;DHT22;24840;47.508;19.376;2023-02-25T03:17:56;6.10;99.90
39095;DHT22;24840;47.508;19.376;2023-02-25T03:20:35;6.30;99.90
39095;DHT22;24840;47.508;19.376;2023-02-25T03:23:06;6.40;99.90
39095;DHT22;24840;47.508;19.376;2023-02-25T03:25:59;6.30;99.90
39095;DHT22;24840;47.508;19.376;2023-02-25T03:28:32;6.40;99.90
39095;DHT22;24840;47.508;19.376;2023-02-25T03:31:08;6.60;99.90
39095;DHT22;24840;47.508;19.376;2023-02-25T03:36:32;6.70;99.90
39095;DHT22;24840;47.508;19.376;2023-02-25T03:39:04;6.70;99.90
39095;DHT22;24840;47.508;19.376;2023-02-25T03:41:35;6.70;99.90
39095;DHT22;24840;47.508;19.376;2023-02-25T03:44:11;6.80;99.90
39095;DHT22;24840;47.508;19.376;2023-02-25T03:46:42;6.90;99.90
39095;DHT22;24840;47.508;19.376;2023-02-25T03:49:09;6.80;99.90
39095;DHT22;24840;47.508;19.376;2023-02-25T03:51:39;6.90;99.90
39095;DHT22;24840;47.508;19.376;2023-02-25T03:54:05;6.90;99.90
39095;DHT22;24840;47.508;19.376;2023-02-25T03:56:43;6.90;99.90
39095;DHT22;24840;47.508;19.376;2023-02-25T03:59:10;6.80;99.90
39095;DHT22;24840;47.508;19.376;2023-02-25T04:01:37;6.80;99.90
39095;DHT22;24840;47.508;19.376;2023-02-25T04:04:04;6.70;99.90
39095;DHT22;24840;47.508;19.376;2023-02-25T04:06:30;6.60;99.90
39095;DHT22;24840;47.508;19.376;2023-02-25T04:08:56;6.60;99.90
39095;DHT22;24840;47.508;19.376;2023-02-25T04:11:23;6.60;99.90
39095;DHT22;24840;47.508;19.376;2023-02-25T04:13:48;6.50;99.90
39095;DHT22;24840;47.508;19.376;2023-02-25T04:16:14;6.50;99.90
39095;DHT22;24840;47.508;19.376;2023-02-25T04:18:40;6.50;99.90
39095;DHT22;24840;47.508;19.376;2023-02-25T04:21:07;6.50;99.90
39095;DHT22;24840;47.508;19.376;2023-02-25T04:23:34;6.60;99.90
39095;DHT22;24840;47.508;19.376;2023-02-25T04:26:00;6.60;99.90
39095;DHT22;24840;47.508;19.376;2023-02-25T04:28:26;6.60;99.90
39095;DHT22;24840;47.508;19.376;2023-02-25T04:30:51;6.60;99.90
39095;DHT22;24840;47.508;19.376;2023-02-25T04:33:17;6.70;99.90
39095;DHT22;24840;47.508;19.376;2023-02-25T04:35:43;6.80;99.90
39095;DHT22;24840;47.508;19.376;2023-02-25T04:38:09;6.80;99.90
39095;DHT22;24840;47.508;19.376;2023-02-25T04:40:35;6.80;99.90
39095;DHT22;24840;47.508;19.376;2023-02-25T04:43:01;6.70;99.90
39095;DHT22;24840;47.508;19.376;2023-02-25T04:45:27;6.70;99.90
39095;DHT22;24840;47.508;19.376;2023-02-25T04:47:54;6.70;99.90
39095;DHT22;24840;47.508;19.376;2023-02-25T04:50:23;6.70;99.90
39095;DHT22;24840;47.508;19.376;2023-02-25T04:52:49;6.70;99.90
39095;DHT22;24840;47.508;19.376;2023-02-25T04:55:15;6.70;99.90
39095;DHT22;24840;47.508;19.376;2023-02-25T04:57:41;6.70;99.90
39095;DHT22;24840;47.508;19.376;2023-02-25T05:00:21;6.80;99.90
39095;DHT22;24840;47.508;19.376;2023-02-25T05:02:49;6.80;99.90
39095;DHT22;24840;47.508;19.376;2023-02-25T05:05:15;6.80;99.90
39095;DHT22;24840;47.508;19.376;2023-02-25T05:07:42;6.80;99.90
39095;DHT22;24840;47.508;19.376;2023-02-25T05:10:09;6.80;99.90
39095;DHT22;24840;47.508;19.376;2023-02-25T05:12:35;6.70;99.90
39095;DHT22;24840;47.508;19.376;2023-02-25T05:15:01;6.70;99.90
39095;DHT22;24840;47.508;19.376;2023-02-25T05:17:31;6.70;99.90
39095;DHT22;24840;47.508;19.376;2023-02-25T05:19:57;6.70;99.90
39095;DHT22;24840;47.508;19.376;2023-02-25T05:22:24;6.70;99.90
39095;DHT22;24840;47.508;19.376;2023-02-25T05:24:50;6.70;99.90
39095;DHT22;24840;47.508;19.376;2023-02-25T05:27:15;6.70;99.90
39095;DHT22;24840;47.508;19.376;2023-02-25T05:29:41;6.80;99.90
39095;DHT22;24840;47.508;19.376;2023-02-25T05:32:07;6.80;99.90
39095;DHT22;24840;47.508;19.376;2023-02-25T05:34:33;6.80;99.90
39095;DHT22;24840;47.508;19.376;2023-02-25T05:37:00;6.80;99.90
39095;DHT22;24840;47.508;19.376;2023-02-25T05:39:26;6.90;99.90
39095;DHT22;24840;47.508;19.376;2023-02-25T05:41:51;6.90;99.90
39095;DHT22;24840;47.508;19.376;2023-02-25T05:44:17;6.90;99.90
39095;DHT22;24840;47.508;19.376;2023-02-25T05:46:43;6.90;99.90
39095;DHT22;24840;47.508;19.376;2023-02-25T05:49:09;7.00;99.90
39095;DHT22;24840;47.508;19.376;2023-02-25T05:51:35;7.00;99.90
39095;DHT22;24840;47.508;19.376;2023-02-25T05:54:01;7.20;99.90
39095;DHT22;24840;47.508;19.376;2023-02-25T05:56:27;7.20;99.90
39095;DHT22;24840;47.508;19.376;2023-02-25T05:58:54;7.20;99.90
39095;DHT22;24840;47.508;19.376;2023-02-25T06:01:23;7.20;99.90
39095;DHT22;24840;47.508;19.376;2023-02-25T06:03:49;7.10;99.90
39095;DHT22;24840;47.508;19.376;2023-02-25T06:06:18;7.10;99.90
39095;DHT22;24840;47.508;19.376;2023-02-25T06:08:47;7.00;99.90
39095;DHT22;24840;47.508;19.376;2023-02-25T06:11:19;7.00;99.90
39095;DHT22;24840;47.508;19.376;2023-02-25T06:13:47;6.90;99.90
39095;DHT22;24840;47.508;19.376;2023-02-25T06:16:14;6.90;99.90
39095;DHT22;24840;47.508;19.376;2023-02-25T06:18:39;6.90;99.90
39095;DHT22;24840;47.508;19.376;2023-02-25T06:21:07;6.90;99.90
39095;DHT22;24840;47.508;19.376;2023-02-25T06:23:34;6.80;99.90
39095;DHT22;24840;47.508;19.376;2023-02-25T06:26:00;6.80;99.90
39095;DHT22;24840;47.508;19.376;2023-02-25T06:28:27;6.70;99.90
39095;DHT22;24840;47.508;19.376;2023-02-25T06:30:53;6.60;99.90
39095;DHT22;24840;47.508;19.376;2023-02-25T06:33:19;6.60;99.90
39095;DHT22;24840;47.508;19.376;2023-02-25T06:35:48;6.50;99.90
39095;DHT22;24840;47.508;19.376;2023-02-25T06:38:14;6.50;99.90
39095;DHT22;24840;47.508;19.376;2023-02-25T06:40:40;6.40;99.90
39095;DHT22;24840;47.508;19.376;2023-02-25T06:43:05;6.30;99.90
39095;DHT22;24840;47.508;19.376;2023-02-25T06:45:31;6.30;99.90
39095;DHT22;24840;47.508;19.376;2023-02-25T06:47:57;6.20;99.90
39095;DHT22;24840;47.508;19.376;2023-02-25T06:50:23;6.20;99.90
39095;DHT22;24840;47.508;19.376;2023-02-25T06:52:48;6.10;99.90
39095;DHT22;24840;47.508;19.376;2023-02-25T06:55:14;6.20;99.90
39095;DHT22;24840;47.508;19.376;2023-02-25T06:57:40;6.10;99.90
39095;DHT22;24840;47.508;19.376;2023-02-25T07:00:06;6.10;99.90
39095;DHT22;24840;47.508;19.376;2023-02-25T07:02:32;6.10;99.90
39095;DHT22;24840;47.508;19.376;2023-02-25T07:04:58;6.10;99.90
39095;DHT22;24840;47.508;19.376;2023-02-25T07:07:25;6.10;99.90
39095;DHT22;24840;47.508;19.376;2023-02-25T07:09:52;6.00;99.90
39095;DHT22;24840;47.508;19.376;2023-02-25T07:12:18;6.00;99.90
39095;DHT22;24840;47.508;19.376;2023-02-25T07:14:44;6.00;99.90
39095;DHT22;24840;47.508;19.376;2023-02-25T07:17:10;6.00;99.90
39095;DHT22;24840;47.508;19.376;2023-02-25T07:19:36;6.00;99.90
39095;DHT22;24840;47.508;19.376;2023-02-25T07:22:02;6.00;99.90
39095;DHT22;24840;47.508;19.376;2023-02-25T07:24:29;6.00;99.90
39095;DHT22;24840;47.508;19.376;2023-02-25T07:26:55;6.10;99.90
39095;DHT22;24840;47.508;19.376;2023-02-25T07:29:21;6.10;99.90
39095;DHT22;24840;47.508;19.376;2023-02-25T07:31:47;6.10;99.90
39095;DHT22;24840;47.508;19.376;2023-02-25T07:34:13;6.00;99.90
39095;DHT22;24840;47.508;19.376;2023-02-25T07:36:39;6.00;99.90
39095;DHT22;24840;47.508;19.376;2023-02-25T07:39:08;5.90;99.90
39095;DHT22;24840;47.508;19.376;2023-02-25T07:41:35;5.90;99.90
39095;DHT22;24840;47.508;19.376;2023-02-25T07:44:02;5.80;99.90
39095;DHT22;24840;47.508;19.376;2023-02-25T07:46:29;5.80;99.90
39095;DHT22;24840;47.508;19.376;2023-02-25T07:48:55;5.90;99.90
39095;DHT22;24840;47.508;19.376;2023-02-25T07:51:22;5.80;99.90
39095;DHT22;24840;47.508;19.376;2023-02-25T07:53:49;5.90;99.90
39095;DHT22;24840;47.508;19.376;2023-02-25T07:56:17;6.10;99.90
39095;DHT22;24840;47.508;19.376;2023-02-25T07:58:43;6.20;99.90
39095;DHT22;24840;47.508;19.376;2023-02-25T08:04:10;6.30;99.90
39095;DHT22;24840;47.508;19.376;2023-02-25T08:06:38;6.20;99.90
39095;DHT22;24840;47.508;19.376;2023-02-25T08:09:09;6.20;99.90
39095;DHT22;24840;47.508;19.376;2023-02-25T08:11:38;6.30;99.90
39095;DHT22;24840;47.508;19.376;2023-02-25T08:14:04;6.30;99.90
39095;DHT22;24840;47.508;19.376;2023-02-25T08:16:31;6.20;99.90
39095;DHT22;24840;47.508;19.376;2023-02-25T08:18:57;6.30;99.90
39095;DHT22;24840;47.508;19.376;2023-02-25T08:21:23;6.20;99.90
39095;DHT22;24840;47.508;19.376;2023-02-25T08:23:51;6.20;99.90
39095;DHT22;24840;47.508;19.376;2023-02-25T08:26:17;6.20;99.90
39095;DHT22;24840;47.508;19.376;2023-02-25T08:28:44;6.20;99.90
39095;DHT22;24840;47.508;19.376;2023-02-25T08:31:10;6.10;99.90
39095;DHT22;24840;47.508;19.376;2023-02-25T08:33:41;6.10;99.90
39095;DHT22;24840;47.508;19.376;2023-02-25T08:36:13;6.10;99.90
39095;DHT22;24840;47.508;19.376;2023-02-25T08:38:40;6.10;99.90
39095;DHT22;24840;47.508;19.376;2023-02-25T08:41:07;6.00;99.90
39095;DHT22;24840;47.508;19.376;2023-02-25T08:43:34;6.00;99.90
39095;DHT22;24840;47.508;19.376;2023-02-25T08:46:00;6.00;99.90
39095;DHT22;24840;47.508;19.376;2023-02-25T08:48:25;5.90;99.90
39095;DHT22;24840;47.508;19.376;2023-02-25T08:50:52;6.00;99.90
39095;DHT22;24840;47.508;19.376;2023-02-25T08:53:17;5.90;99.90
39095;DHT22;24840;47.508;19.376;2023-02-25T08:55:43;5.90;99.90
39095;DHT22;24840;47.508;19.376;2023-02-25T08:58:11;5.90;99.90
39095;DHT22;24840;47.508;19.376;2023-02-25T09:00:37;5.90;99.90
39095;DHT22;24840;47.508;19.376;2023-02-25T09:03:03;5.90;99.90
39095;DHT22;24840;47.508;19.376;2023-02-25T09:05:28;6.00;99.90
39095;DHT22;24840;47.508;19.376;2023-02-25T09:07:54;6.00;99.90
39095;DHT22;24840;47.508;19.376;2023-02-25T09:10:20;6.10;99.90
39095;DHT22;24840;47.508;19.376;2023-02-25T09:12:46;6.10;99.90
39095;DHT22;24840;47.508;19.376;2023-02-25T09:15:14;6.20;99.90
39095;DHT22;24840;47.508;19.376;2023-02-25T09:17:39;6.10;99.90
39095;DHT22;24840;47.508;19.376;2023-02-25T09:20:06;6.20;99.90
39095;DHT22;24840;47.508;19.376;2023-02-25T09:22:36;6.20;99.90
39095;DHT22;24840;47.508;19.376;2023-02-25T09:25:04;6.30;99.90
39095;DHT22;24840;47.508;19.376;2023-02-25T09:27:30;6.30;99.90
39095;DHT22;24840;47.508;19.376;2023-02-25T09:29:56;6.40;99.90
39095;DHT22;24840;47.508;19.376;2023-02-25T09:32:22;6.50;99.90
39095;DHT22;24840;47.508;19.376;2023-02-25T09:34:48;6.50;99.90
39095;DHT22;24840;47.508;19.376;2023-02-25T09:37:17;6.50;99.90
39095;DHT22;24840;47.508;19.376;2023-02-25T09:39:44;6.50;99.90
39095;DHT22;24840;47.508;19.376;2023-02-25T09:42:22;6.60;99.90
39095;DHT22;24840;47.508;19.376;2023-02-25T09:44:52;6.60;99.90
39095;DHT22;24840;47.508;19.376;2023-02-25T09:49:56;6.50;99.90
39095;DHT22;24840;47.508;19.376;2023-02-25T09:52:30;6.50;99.90
39095;DHT22;24840;47.508;19.376;2023-02-25T09:58:13;6.60;99.90
39095;DHT22;24840;47.508;19.376;2023-02-25T10:03:47;6.50;99.90
39095;DHT22;24840;47.508;19.376;2023-02-25T10:06:23;6.50;99.90
39095;DHT22;24840;47.508;19.376;2023-02-25T10:09:23;6.50;99.90
39095;DHT22;24840;47.508;19.376;2023-02-25T10:25:08;7.50;99.90
39095;DHT22;24840;47.508;19.376;2023-02-25T10:27:54;8.00;99.90
39095;DHT22;24840;47.508;19.376;2023-02-25T10:33:03;8.20;99.90
39095;DHT22;24840;47.508;19.376;2023-02-25T10:35:33;8.20;99.90
39095;DHT22;24840;47.508;19.376;2023-02-25T10:38:01;7.80;99.90
39095;DHT22;24840;47.508;19.376;2023-02-25T10:40:27;7.70;99.90
39095;DHT22;24840;47.508;19.376;2023-02-25T10:43:09;7.50;99.90
39095;DHT22;24840;47.508;19.376;2023-02-25T10:45:44;7.50;99.90
39095;DHT22;24840;47.508;19.376;2023-02-25T10:48:18;7.60;99.90
39095;DHT22;24840;47.508;19.376;2023-02-25T10:51:10;7.70;99.90
39095;DHT22;24840;47.508;19.376;2023-02-25T10:56:19;7.50;99.90
39095;DHT22;24840;47.508;19.376;2023-02-25T10:59:05;7.70;99.90
39095;DHT22;24840;47.508;19.376;2023-02-25T11:01:40;7.70;99.90
39095;DHT22;24840;47.508;19.376;2023-02-25T11:04:16;7.70;99.90
39095;DHT22;24840;47.508;19.376;2023-02-25T11:06:43;8.20;99.90
39095;DHT22;24840;47.508;19.376;2023-02-25T11:14:30;9.10;99.90
39095;DHT22;24840;47.508;19.376;2023-02-25T11:19:42;8.80;99.60
39095;DHT22;24840;47.508;19.376;2023-02-25T11:22:19;9.50;99.90
39095;DHT22;24840;47.508;19.376;2023-02-25T11:24:57;9.60;98.90
39095;DHT22;24840;47.508;19.376;2023-02-25T11:30:03;9.30;96.20
39095;DHT22;24840;47.508;19.376;2023-02-25T11:32:30;10.40;97.20
39095;DHT22;24840;47.508;19.376;2023-02-25T11:35:07;10.90;94.40
39095;DHT22;24840;47.508;19.376;2023-02-25T11:37:43;10.60;92.20
39095;DHT22;24840;47.508;19.376;2023-02-25T11:40:19;10.50;92.60
39095;DHT22;24840;47.508;19.376;2023-02-25T11:45:28;10.10;88.10
39095;DHT22;24840;47.508;19.376;2023-02-25T11:47:54;9.80;88.10
39095;DHT22;24840;47.508;19.376;2023-02-25T11:50:25;10.00;91.50
39095;DHT22;24840;47.508;19.376;2023-02-25T12:01:06;9.90;89.70
39095;DHT22;24840;47.508;19.376;2023-02-25T12:06:10;9.60;90.90
39095;DHT22;24840;47.508;19.376;2023-02-25T12:14:00;9.00;91.10
39095;DHT22;24840;47.508;19.376;2023-02-25T12:52:11;11.10;84.20
39095;DHT22;24840;47.508;19.376;2023-02-25T12:55:14;12.60;82.20
39095;DHT22;24840;47.508;19.376;2023-02-25T13:00:21;11.70;79.10
39095;DHT22;24840;47.508;19.376;2023-02-25T13:03:05;12.30;79.30
39095;DHT22;24840;47.508;19.376;2023-02-25T13:19:04;14.10;70.60
39095;DHT22;24840;47.508;19.376;2023-02-25T13:27:58;13.80;69.80
39095;DHT22;24840;47.508;19.376;2023-02-25T13:30:48;13.40;66.30
39095;DHT22;24840;47.508;19.376;2023-02-25T13:36:36;12.40;63.80
39095;DHT22;24840;47.508;19.376;2023-02-25T13:39:27;12.40;66.20
39095;DHT22;24840;47.508;19.376;2023-02-25T14:02:43;13.50;66.20
39095;DHT22;24840;47.508;19.376;2023-02-25T14:11:33;13.60;67.10
39095;DHT22;24840;47.508;19.376;2023-02-25T14:22:34;12.70;65.40
39095;DHT22;24840;47.508;19.376;2023-02-25T14:33:53;11.80;65.10
39095;DHT22;24840;47.508;19.376;2023-02-25T14:36:58;11.80;64.60
39095;DHT22;24840;47.508;19.376;2023-02-25T14:39:36;12.30;63.50
39095;DHT22;24840;47.508;19.376;2023-02-25T14:45:01;11.40;64.10
39095;DHT22;24840;47.508;19.376;2023-02-25T14:47:33;11.20;65.50
39095;DHT22;24840;47.508;19.376;2023-02-25T15:20:53;10.00;68.40
39095;DHT22;24840;47.508;19.376;2023-02-25T15:23:19;9.70;69.00
39095;DHT22;24840;47.508;19.376;2023-02-25T15:33:41;9.00;72.70
39095;DHT22;24840;47.508;19.376;2023-02-25T15:41:43;8.60;74.50
39095;DHT22;24840;47.508;19.376;2023-02-25T15:46:48;8.40;75.50
39095;DHT22;24840;47.508;19.376;2023-02-25T15:49:25;8.30;75.40
39095;DHT22;24840;47.508;19.376;2023-02-25T15:51:55;8.10;76.00
39095;DHT22;24840;47.508;19.376;2023-02-25T15:59:49;7.90;78.10
39095;DHT22;24840;47.508;19.376;2023-02-25T16:07:37;7.60;78.00
39095;DHT22;24840;47.508;19.376;2023-02-25T16:10:26;7.60;79.10
39095;DHT22;24840;47.508;19.376;2023-02-25T16:12:54;7.50;79.60
39095;DHT22;24840;47.508;19.376;2023-02-25T16:17:56;7.00;81.40
39095;DHT22;24840;47.508;19.376;2023-02-25T16:20:41;7.00;83.50
39095;DHT22;24840;47.508;19.376;2023-02-25T16:23:11;7.00;82.40
39095;DHT22;24840;47.508;19.376;2023-02-25T16:39:44;6.00;90.60
39095;DHT22;24840;47.508;19.376;2023-02-25T16:42:12;5.80;91.70
39095;DHT22;24840;47.508;19.376;2023-02-25T16:44:40;5.60;92.30
39095;DHT22;24840;47.508;19.376;2023-02-25T16:47:38;5.50;91.90
39095;DHT22;24840;47.508;19.376;2023-02-25T16:50:13;5.60;92.10
39095;DHT22;24840;47.508;19.376;2023-02-25T16:52:45;5.40;92.60
39095;DHT22;24840;47.508;19.376;2023-02-25T16:55:16;5.20;93.30
39095;DHT22;24840;47.508;19.376;2023-02-25T16:58:21;5.10;93.80
39095;DHT22;24840;47.508;19.376;2023-02-25T17:01:00;4.90;93.40
39095;DHT22;24840;47.508;19.376;2023-02-25T17:03:49;4.60;94.00
39095;DHT22;24840;47.508;19.376;2023-02-25T17:06:18;4.80;94.30
39095;DHT22;24840;47.508;19.376;2023-02-25T17:08:46;4.60;94.50
39095;DHT22;24840;47.508;19.376;2023-02-25T17:11:18;4.60;94.50
39095;DHT22;24840;47.508;19.376;2023-02-25T17:13:44;4.60;94.90
39095;DHT22;24840;47.508;19.376;2023-02-25T17:16:32;4.40;95.40
39095;DHT22;24840;47.508;19.376;2023-02-25T17:19:02;4.30;95.20
39095;DHT22;24840;47.508;19.376;2023-02-25T17:21:30;4.10;95.60
39095;DHT22;24840;47.508;19.376;2023-02-25T17:24:02;3.90;95.20
39095;DHT22;24840;47.508;19.376;2023-02-25T17:26:29;3.90;95.30
39095;DHT22;24840;47.508;19.376;2023-02-25T17:28:58;3.80;96.00
39095;DHT22;24840;47.508;19.376;2023-02-25T17:31:27;3.70;96.10
39095;DHT22;24840;47.508;19.376;2023-02-25T17:33:56;3.50;96.20
39095;DHT22;24840;47.508;19.376;2023-02-25T17:36:35;3.40;96.60
39095;DHT22;24840;47.508;19.376;2023-02-25T17:39:15;3.50;97.20
39095;DHT22;24840;47.508;19.376;2023-02-25T17:41:42;3.40;97.90
39095;DHT22;24840;47.508;19.376;2023-02-25T17:47:11;3.30;97.30
39095;DHT22;24840;47.508;19.376;2023-02-25T17:49:50;3.40;97.60
39095;DHT22;24840;47.508;19.376;2023-02-25T17:52:27;3.20;97.40
39095;DHT22;24840;47.508;19.376;2023-02-25T17:57:25;2.90;98.10
39095;DHT22;24840;47.508;19.376;2023-02-25T17:59:58;3.20;98.30
39095;DHT22;24840;47.508;19.376;2023-02-25T18:02:34;3.30;98.80
39095;DHT22;24840;47.508;19.376;2023-02-25T18:05:27;3.20;98.90
39095;DHT22;24840;47.508;19.376;2023-02-25T18:08:22;3.20;99.30
39095;DHT22;24840;47.508;19.376;2023-02-25T18:10:53;3.30;99.50
39095;DHT22;24840;47.508;19.376;2023-02-25T18:13:22;3.30;99.10
39095;DHT22;24840;47.508;19.376;2023-02-25T18:18:40;3.30;99.90
39095;DHT22;24840;47.508;19.376;2023-02-25T18:21:07;3.30;99.90
39095;DHT22;24840;47.508;19.376;2023-02-25T18:23:34;3.10;99.90
39095;DHT22;24840;47.508;19.376;2023-02-25T18:26:21;3.30;99.90
39095;DHT22;24840;47.508;19.376;2023-02-25T18:28:52;3.30;99.90
39095;DHT22;24840;47.508;19.376;2023-02-25T18:31:25;3.20;99.90
39095;DHT22;24840;47.508;19.376;2023-02-25T18:33:50;3.40;99.90
39095;DHT22;24840;47.508;19.376;2023-02-25T18:36:25;3.30;99.90
39095;DHT22;24840;47.508;19.376;2023-02-25T18:38:53;3.40;99.90
39095;DHT22;24840;47.508;19.376;2023-02-25T18:41:21;3.50;99.90
39095;DHT22;24840;47.508;19.376;2023-02-25T18:43:47;3.60;99.90
39095;DHT22;24840;47.508;19.376;2023-02-25T18:46:21;3.50;99.90
39095;DHT22;24840;47.508;19.376;2023-02-25T18:48:47;3.40;99.90
39095;DHT22;24840;47.508;19.376;2023-02-25T18:51:13;3.50;99.90
39095;DHT22;24840;47.508;19.376;2023-02-25T18:53:39;3.50;99.90
39095;DHT22;24840;47.508;19.376;2023-02-25T18:56:09;3.60;99.90
39095;DHT22;24840;47.508;19.376;2023-02-25T18:58:39;3.60;99.90
39095;DHT22;24840;47.508;19.376;2023-02-25T19:01:05;3.70;99.90
39095;DHT22;24840;47.508;19.376;2023-02-25T19:03:35;3.80;99.90
39095;DHT22;24840;47.508;19.376;2023-02-25T19:06:04;3.80;99.90
39095;DHT22;24840;47.508;19.376;2023-02-25T19:08:31;3.80;99.90
39095;DHT22;24840;47.508;19.376;2023-02-25T19:10:58;3.70;99.90
39095;DHT22;24840;47.508;19.376;2023-02-25T19:13:37;3.80;99.90
39095;DHT22;24840;47.508;19.376;2023-02-25T19:16:05;3.70;99.90
39095;DHT22;24840;47.508;19.376;2023-02-25T19:18:31;3.70;99.90
39095;DHT22;24840;47.508;19.376;2023-02-25T19:20:57;3.80;99.90
39095;DHT22;24840;47.508;19.376;2023-02-25T19:23:25;3.80;99.90
39095;DHT22;24840;47.508;19.376;2023-02-25T19:26:00;4.00;99.90
39095;DHT22;24840;47.508;19.376;2023-02-25T19:28:26;4.00;99.90
39095;DHT22;24840;47.508;19.376;2023-02-25T19:30:52;4.00;99.90
39095;DHT22;24840;47.508;19.376;2023-02-25T19:33:18;3.90;99.90
39095;DHT22;24840;47.508;19.376;2023-02-25T19:35:44;3.90;99.90
39095;DHT22;24840;47.508;19.376;2023-02-25T19:38:17;3.90;99.90
39095;DHT22;24840;47.508;19.376;2023-02-25T19:40:44;3.90;99.90
39095;DHT22;24840;47.508;19.376;2023-02-25T19:43:12;4.00;99.90
39095;DHT22;24840;47.508;19.376;2023-02-25T19:45:39;3.90;99.90
39095;DHT22;24840;47.508;19.376;2023-02-25T19:48:05;4.00;99.90
39095;DHT22;24840;47.508;19.376;2023-02-25T19:50:31;4.10;99.90
39095;DHT22;24840;47.508;19.376;2023-02-25T19:53:00;4.20;99.90
39095;DHT22;24840;47.508;19.376;2023-02-25T19:55:27;4.20;99.90
39095;DHT22;24840;47.508;19.376;2023-02-25T19:57:53;4.20;99.90
39095;DHT22;24840;47.508;19.376;2023-02-25T20:00:22;4.30;99.90
39095;DHT22;24840;47.508;19.376;2023-02-25T20:02:50;4.30;99.90
39095;DHT22;24840;47.508;19.376;2023-02-25T20:05:18;4.30;99.90
39095;DHT22;24840;47.508;19.376;2023-02-25T20:07:43;4.20;99.90
39095;DHT22;24840;47.508;19.376;2023-02-25T20:10:11;4.20;99.90
39095;DHT22;24840;47.508;19.376;2023-02-25T20:12:39;4.20;99.90
39095;DHT22;24840;47.508;19.376;2023-02-25T20:15:06;4.10;99.90
39095;DHT22;24840;47.508;19.376;2023-02-25T20:17:33;3.90;99.90
39095;DHT22;24840;47.508;19.376;2023-02-25T20:19:59;3.80;99.90
39095;DHT22;24840;47.508;19.376;2023-02-25T20:22:25;3.90;99.90
39095;DHT22;24840;47.508;19.376;2023-02-25T20:24:51;3.80;99.90
39095;DHT22;24840;47.508;19.376;2023-02-25T20:27:16;3.90;99.90